sensor_id;sensor_type;location;lat;lon;timestamp;P1;durP1;ratioP1;P2;durP2;ratioP2
23517;SDS011;11935;50.878;4.392;2023-03-01T00:02:07;13.63;;;7.70;;
23517;SDS011;11935;50.878;4.392;2023-03-01T00:04:33;11.82;;;7.75;;
23517;SDS011;11935;50.878;4.392;2023-03-01T00:07:00;8.93;;;7.85;;
23517;SDS011;11935;50.878;4.392;2023-03-01T00:09:27;14.88;;;8.13;;
23517;SDS011;11935;50.878;4.392;2023-03-01T00:11:53;10.43;;;7.47;;
23517;SDS011;11935;50.878;4.392;2023-03-01T00:14:19;12.02;;;8.07;;
23517;SDS011;11935;50.878;4.392;2023-03-01T00:16:45;11.38;;;8.23;;
23517;SDS011;11935;50.878;4.392;2023-03-01T00:19:18;11.00;;;8.05;;
23517;SDS011;11935;50.878;4.392;2023-03-01T00:21:45;13.02;;;8.05;;
23517;SDS011;11935;50.878;4.392;2023-03-01T00:24:11;10.98;;;7.68;;
23517;SDS011;11935;50.878;4.392;2023-03-01T00:26:37;12.25;;;8.45;;
23517;SDS011;11935;50.878;4.392;2023-03-01T00:29:04;10.63;;;8.07;;
23517;SDS011;11935;50.878;4.392;2023-03-01T00:31:30;8.80;;;7.22;;
23517;SDS011;11935;50.878;4.392;2023-03-01T00:33:57;10.73;;;7.90;;
23517;SDS011;11935;50.878;4.392;2023-03-01T00:36:25;10.40;;;8.18;;
23517;SDS011;11935;50.878;4.392;2023-03-01T00:38:51;10.35;;;7.95;;
23517;SDS011;11935;50.878;4.392;2023-03-01T00:41:21;11.43;;;7.63;;
23517;SDS011;11935;50.878;4.392;2023-03-01T00:43:48;12.00;;;7.90;;
23517;SDS011;11935;50.878;4.392;2023-03-01T00:46:15;13.65;;;7.57;;
23517;SDS011;11935;50.878;4.392;2023-03-01T00:48:41;10.95;;;7.68;;
23517;SDS011;11935;50.878;4.392;2023-03-01T00:51:12;11.07;;;7.13;;
23517;SDS011;11935;50.878;4.392;2023-03-01T00:53:39;13.38;;;7.57;;
23517;SDS011;11935;50.878;4.392;2023-03-01T00:56:06;12.68;;;7.68;;
23517;SDS011;11935;50.878;4.392;2023-03-01T00:58:33;10.52;;;7.90;;
23517;SDS011;11935;50.878;4.392;2023-03-01T01:00:59;12.52;;;8.85;;
23517;SDS011;11935;50.878;4.392;2023-03-01T01:03:25;11.82;;;7.43;;
23517;SDS011;11935;50.878;4.392;2023-03-01T01:05:52;10.13;;;7.80;;
23517;SDS011;11935;50.878;4.392;2023-03-01T01:08:18;12.70;;;7.93;;
23517;SDS011;11935;50.878;4.392;2023-03-01T01:10:45;11.05;;;7.57;;
23517;SDS011;11935;50.878;4.392;2023-03-01T01:13:11;11.27;;;7.18;;
23517;SDS011;11935;50.878;4.392;2023-03-01T01:15:37;12.20;;;8.35;;
23517;SDS011;11935;50.878;4.392;2023-03-01T01:18:03;15.52;;;7.88;;
23517;SDS011;11935;50.878;4.392;2023-03-01T01:20:30;12.57;;;7.80;;
23517;SDS011;11935;50.878;4.392;2023-03-01T01:22:56;10.15;;;7.90;;
23517;SDS011;11935;50.878;4.392;2023-03-01T01:25:22;12.93;;;7.72;;
23517;SDS011;11935;50.878;4.392;2023-03-01T01:27:51;12.27;;;7.97;;
23517;SDS011;11935;50.878;4.392;2023-03-01T01:30:17;13.35;;;7.93;;
23517;SDS011;11935;50.878;4.392;2023-03-01T01:32:43;13.75;;;8.00;;
23517;SDS011;11935;50.878;4.392;2023-03-01T01:35:09;11.90;;;8.10;;
23517;SDS011;11935;50.878;4.392;2023-03-01T01:37:35;9.95;;;7.72;;
23517;SDS011;11935;50.878;4.392;2023-03-01T01:40:02;11.52;;;8.10;;
23517;SDS011;11935;50.878;4.392;2023-03-01T01:42:29;10.43;;;7.55;;
23517;SDS011;11935;50.878;4.392;2023-03-01T01:47:40;14.38;;;8.35;;
23517;SDS011;11935;50.878;4.392;2023-03-01T01:50:08;9.75;;;7.50;;
23517;SDS011;11935;50.878;4.392;2023-03-01T01:52:40;13.07;;;7.38;;
23517;SDS011;11935;50.878;4.392;2023-03-01T01:55:07;9.90;;;7.25;;
23517;SDS011;11935;50.878;4.392;2023-03-01T01:57:42;10.85;;;8.07;;
23517;SDS011;11935;50.878;4.392;2023-03-01T02:00:13;13.77;;;7.65;;
23517;SDS011;11935;50.878;4.392;2023-03-01T02:02:40;12.00;;;7.65;;
23517;SDS011;11935;50.878;4.392;2023-03-01T02:07:52;10.82;;;7.85;;
23517;SDS011;11935;50.878;4.392;2023-03-01T02:10:19;11.85;;;7.55;;
23517;SDS011;11935;50.878;4.392;2023-03-01T02:12:45;13.55;;;7.93;;
23517;SDS011;11935;50.878;4.392;2023-03-01T02:15:12;11.43;;;8.10;;
23517;SDS011;11935;50.878;4.392;2023-03-01T02:17:38;12.15;;;7.60;;
23517;SDS011;11935;50.878;4.392;2023-03-01T02:20:38;9.68;;;7.60;;
23517;SDS011;11935;50.878;4.392;2023-03-01T02:22:56;12.05;;;7.75;;
23517;SDS011;11935;50.878;4.392;2023-03-01T02:25:25;13.10;;;7.43;;
23517;SDS011;11935;50.878;4.392;2023-03-01T02:27:55;14.23;;;7.93;;
23517;SDS011;11935;50.878;4.392;2023-03-01T02:30:24;11.93;;;8.18;;
23517;SDS011;11935;50.878;4.392;2023-03-01T02:32:50;9.60;;;7.10;;
23517;SDS011;11935;50.878;4.392;2023-03-01T02:35:17;12.20;;;8.15;;
23517;SDS011;11935;50.878;4.392;2023-03-01T02:37:43;10.75;;;7.75;;
23517;SDS011;11935;50.878;4.392;2023-03-01T02:40:11;11.65;;;7.88;;
23517;SDS011;11935;50.878;4.392;2023-03-01T02:42:44;11.35;;;7.75;;
23517;SDS011;11935;50.878;4.392;2023-03-01T02:45:11;13.27;;;8.00;;
23517;SDS011;11935;50.878;4.392;2023-03-01T02:47:37;10.52;;;7.72;;
23517;SDS011;11935;50.878;4.392;2023-03-01T02:50:10;10.35;;;7.80;;
23517;SDS011;11935;50.878;4.392;2023-03-01T02:52:40;11.65;;;8.05;;
23517;SDS011;11935;50.878;4.392;2023-03-01T02:55:10;11.35;;;8.35;;
23517;SDS011;11935;50.878;4.392;2023-03-01T02:57:38;13.68;;;8.48;;
23517;SDS011;11935;50.878;4.392;2023-03-01T03:00:15;17.02;;;8.25;;
23517;SDS011;11935;50.878;4.392;2023-03-01T03:02:49;10.98;;;7.45;;
23517;SDS011;11935;50.878;4.392;2023-03-01T03:05:17;12.10;;;7.72;;
23517;SDS011;11935;50.878;4.392;2023-03-01T03:07:44;10.98;;;7.78;;
23517;SDS011;11935;50.878;4.392;2023-03-01T03:10:12;11.10;;;7.78;;
23517;SDS011;11935;50.878;4.392;2023-03-01T03:12:38;11.70;;;8.38;;
23517;SDS011;11935;50.878;4.392;2023-03-01T03:15:05;13.55;;;7.80;;
23517;SDS011;11935;50.878;4.392;2023-03-01T03:17:37;12.07;;;8.15;;
23517;SDS011;11935;50.878;4.392;2023-03-01T03:20:04;12.73;;;8.05;;
23517;SDS011;11935;50.878;4.392;2023-03-01T03:22:31;10.60;;;7.87;;
23517;SDS011;11935;50.878;4.392;2023-03-01T03:24:59;13.43;;;8.20;;
23517;SDS011;11935;50.878;4.392;2023-03-01T03:27:25;12.23;;;8.40;;
23517;SDS011;11935;50.878;4.392;2023-03-01T03:29:51;11.32;;;7.90;;
23517;SDS011;11935;50.878;4.392;2023-03-01T03:32:17;12.23;;;8.05;;
23517;SDS011;11935;50.878;4.392;2023-03-01T03:34:43;9.52;;;7.50;;
23517;SDS011;11935;50.878;4.392;2023-03-01T03:37:09;12.02;;;8.27;;
23517;SDS011;11935;50.878;4.392;2023-03-01T03:39:55;11.43;;;8.13;;
23517;SDS011;11935;50.878;4.392;2023-03-01T03:42:21;12.25;;;8.45;;
23517;SDS011;11935;50.878;4.392;2023-03-01T03:44:48;14.68;;;8.88;;
23517;SDS011;11935;50.878;4.392;2023-03-01T03:47:14;12.38;;;7.75;;
23517;SDS011;11935;50.878;4.392;2023-03-01T03:49:40;13.10;;;8.48;;
23517;SDS011;11935;50.878;4.392;2023-03-01T03:52:06;13.52;;;8.40;;
23517;SDS011;11935;50.878;4.392;2023-03-01T03:54:39;15.48;;;8.63;;
23517;SDS011;11935;50.878;4.392;2023-03-01T03:57:05;16.63;;;8.75;;
23517;SDS011;11935;50.878;4.392;2023-03-01T03:59:31;11.35;;;8.02;;
23517;SDS011;11935;50.878;4.392;2023-03-01T04:01:57;11.90;;;8.70;;
23517;SDS011;11935;50.878;4.392;2023-03-01T04:04:23;22.23;;;14.73;;
23517;SDS011;11935;50.878;4.392;2023-03-01T04:06:49;12.30;;;8.35;;
23517;SDS011;11935;50.878;4.392;2023-03-01T04:09:15;13.13;;;8.88;;
23517;SDS011;11935;50.878;4.392;2023-03-01T04:11:41;15.00;;;8.95;;
23517;SDS011;11935;50.878;4.392;2023-03-01T04:14:08;12.43;;;8.32;;
23517;SDS011;11935;50.878;4.392;2023-03-01T04:16:34;14.15;;;8.68;;
23517;SDS011;11935;50.878;4.392;2023-03-01T04:19:00;14.23;;;8.75;;
23517;SDS011;11935;50.878;4.392;2023-03-01T04:21:26;13.25;;;9.05;;
23517;SDS011;11935;50.878;4.392;2023-03-01T04:23:52;12.38;;;9.13;;
23517;SDS011;11935;50.878;4.392;2023-03-01T04:26:19;10.90;;;8.38;;
23517;SDS011;11935;50.878;4.392;2023-03-01T04:28:45;11.30;;;8.13;;
23517;SDS011;11935;50.878;4.392;2023-03-01T04:31:14;14.60;;;8.30;;
23517;SDS011;11935;50.878;4.392;2023-03-01T04:33:49;11.60;;;8.43;;
23517;SDS011;11935;50.878;4.392;2023-03-01T04:36:19;12.65;;;9.13;;
23517;SDS011;11935;50.878;4.392;2023-03-01T04:38:45;11.77;;;9.15;;
23517;SDS011;11935;50.878;4.392;2023-03-01T04:41:15;13.52;;;9.23;;
23517;SDS011;11935;50.878;4.392;2023-03-01T04:43:42;12.73;;;8.73;;
23517;SDS011;11935;50.878;4.392;2023-03-01T04:46:09;12.77;;;8.75;;
23517;SDS011;11935;50.878;4.392;2023-03-01T04:48:36;12.05;;;9.20;;
23517;SDS011;11935;50.878;4.392;2023-03-01T04:51:03;18.70;;;9.55;;
23517;SDS011;11935;50.878;4.392;2023-03-01T04:53:30;13.88;;;9.30;;
23517;SDS011;11935;50.878;4.392;2023-03-01T04:55:56;13.82;;;8.88;;
23517;SDS011;11935;50.878;4.392;2023-03-01T04:58:23;14.23;;;9.70;;
23517;SDS011;11935;50.878;4.392;2023-03-01T05:00:49;11.60;;;8.50;;
23517;SDS011;11935;50.878;4.392;2023-03-01T05:03:15;11.65;;;8.45;;
23517;SDS011;11935;50.878;4.392;2023-03-01T05:05:45;14.15;;;8.80;;
23517;SDS011;11935;50.878;4.392;2023-03-01T05:08:11;10.63;;;7.85;;
23517;SDS011;11935;50.878;4.392;2023-03-01T05:10:48;13.15;;;8.25;;
23517;SDS011;11935;50.878;4.392;2023-03-01T05:15:45;11.40;;;8.90;;
23517;SDS011;11935;50.878;4.392;2023-03-01T05:18:12;11.80;;;8.85;;
23517;SDS011;11935;50.878;4.392;2023-03-01T05:20:38;16.27;;;9.57;;
23517;SDS011;11935;50.878;4.392;2023-03-01T05:23:04;12.65;;;8.88;;
23517;SDS011;11935;50.878;4.392;2023-03-01T05:25:31;15.25;;;8.57;;
23517;SDS011;11935;50.878;4.392;2023-03-01T05:27:58;12.10;;;8.50;;
23517;SDS011;11935;50.878;4.392;2023-03-01T05:30:29;13.75;;;8.77;;
23517;SDS011;11935;50.878;4.392;2023-03-01T05:32:55;14.25;;;9.05;;
23517;SDS011;11935;50.878;4.392;2023-03-01T05:35:21;14.70;;;8.68;;
23517;SDS011;11935;50.878;4.392;2023-03-01T05:37:48;13.88;;;9.27;;
23517;SDS011;11935;50.878;4.392;2023-03-01T05:40:16;12.90;;;8.80;;
23517;SDS011;11935;50.878;4.392;2023-03-01T05:45:10;12.30;;;9.10;;
23517;SDS011;11935;50.878;4.392;2023-03-01T05:47:37;17.93;;;10.07;;
23517;SDS011;11935;50.878;4.392;2023-03-01T05:50:04;17.88;;;9.75;;
23517;SDS011;11935;50.878;4.392;2023-03-01T05:52:32;12.85;;;9.15;;
23517;SDS011;11935;50.878;4.392;2023-03-01T05:54:58;14.75;;;9.82;;
23517;SDS011;11935;50.878;4.392;2023-03-01T05:57:24;15.30;;;9.68;;
23517;SDS011;11935;50.878;4.392;2023-03-01T05:59:50;14.05;;;9.68;;
23517;SDS011;11935;50.878;4.392;2023-03-01T06:02:16;16.05;;;9.77;;
23517;SDS011;11935;50.878;4.392;2023-03-01T06:04:43;13.55;;;9.45;;
23517;SDS011;11935;50.878;4.392;2023-03-01T06:07:09;15.23;;;9.05;;
23517;SDS011;11935;50.878;4.392;2023-03-01T06:09:36;16.30;;;9.05;;
23517;SDS011;11935;50.878;4.392;2023-03-01T06:12:02;13.45;;;9.13;;
23517;SDS011;11935;50.878;4.392;2023-03-01T06:14:28;14.50;;;9.00;;
23517;SDS011;11935;50.878;4.392;2023-03-01T06:16:54;16.52;;;9.30;;
23517;SDS011;11935;50.878;4.392;2023-03-01T06:19:20;18.08;;;10.00;;
23517;SDS011;11935;50.878;4.392;2023-03-01T06:21:46;15.75;;;9.40;;
23517;SDS011;11935;50.878;4.392;2023-03-01T06:24:12;15.27;;;9.35;;
23517;SDS011;11935;50.878;4.392;2023-03-01T06:26:38;11.40;;;9.13;;
23517;SDS011;11935;50.878;4.392;2023-03-01T06:29:04;13.52;;;9.05;;
23517;SDS011;11935;50.878;4.392;2023-03-01T06:31:30;12.18;;;9.30;;
23517;SDS011;11935;50.878;4.392;2023-03-01T06:33:56;13.05;;;9.05;;
23517;SDS011;11935;50.878;4.392;2023-03-01T06:36:23;11.63;;;9.10;;
23517;SDS011;11935;50.878;4.392;2023-03-01T06:38:49;12.68;;;9.02;;
23517;SDS011;11935;50.878;4.392;2023-03-01T06:41:15;16.52;;;9.63;;
23517;SDS011;11935;50.878;4.392;2023-03-01T06:43:41;13.10;;;9.52;;
23517;SDS011;11935;50.878;4.392;2023-03-01T06:46:07;14.32;;;9.20;;
23517;SDS011;11935;50.878;4.392;2023-03-01T06:48:33;16.20;;;9.57;;
23517;SDS011;11935;50.878;4.392;2023-03-01T06:51:00;14.30;;;8.93;;
23517;SDS011;11935;50.878;4.392;2023-03-01T06:53:27;14.80;;;9.93;;
23517;SDS011;11935;50.878;4.392;2023-03-01T06:55:58;12.32;;;8.93;;
23517;SDS011;11935;50.878;4.392;2023-03-01T06:58:25;13.27;;;9.48;;
23517;SDS011;11935;50.878;4.392;2023-03-01T07:00:51;14.02;;;9.80;;
23517;SDS011;11935;50.878;4.392;2023-03-01T07:03:17;14.77;;;9.68;;
23517;SDS011;11935;50.878;4.392;2023-03-01T07:05:43;16.40;;;9.85;;
23517;SDS011;11935;50.878;4.392;2023-03-01T07:08:10;13.90;;;9.77;;
23517;SDS011;11935;50.878;4.392;2023-03-01T07:10:36;14.40;;;9.90;;
23517;SDS011;11935;50.878;4.392;2023-03-01T07:13:02;18.55;;;10.57;;
23517;SDS011;11935;50.878;4.392;2023-03-01T07:15:28;15.93;;;12.40;;
23517;SDS011;11935;50.878;4.392;2023-03-01T07:17:55;14.45;;;9.75;;
23517;SDS011;11935;50.878;4.392;2023-03-01T07:20:22;19.63;;;10.27;;
23517;SDS011;11935;50.878;4.392;2023-03-01T07:22:50;18.52;;;10.75;;
23517;SDS011;11935;50.878;4.392;2023-03-01T07:25:16;19.73;;;10.93;;
23517;SDS011;11935;50.878;4.392;2023-03-01T07:27:43;15.63;;;10.20;;
23517;SDS011;11935;50.878;4.392;2023-03-01T07:30:09;17.55;;;10.25;;
23517;SDS011;11935;50.878;4.392;2023-03-01T07:32:35;16.50;;;9.38;;
23517;SDS011;11935;50.878;4.392;2023-03-01T07:35:01;15.40;;;10.25;;
23517;SDS011;11935;50.878;4.392;2023-03-01T07:37:27;14.88;;;9.65;;
23517;SDS011;11935;50.878;4.392;2023-03-01T07:39:54;16.35;;;10.30;;
23517;SDS011;11935;50.878;4.392;2023-03-01T07:42:20;16.98;;;10.50;;
23517;SDS011;11935;50.878;4.392;2023-03-01T07:44:46;18.17;;;10.35;;
23517;SDS011;11935;50.878;4.392;2023-03-01T07:47:12;15.30;;;9.00;;
23517;SDS011;11935;50.878;4.392;2023-03-01T07:49:38;16.95;;;10.40;;
23517;SDS011;11935;50.878;4.392;2023-03-01T07:52:04;14.32;;;9.70;;
23517;SDS011;11935;50.878;4.392;2023-03-01T07:54:30;18.88;;;9.52;;
23517;SDS011;11935;50.878;4.392;2023-03-01T07:56:56;14.07;;;9.55;;
23517;SDS011;11935;50.878;4.392;2023-03-01T07:59:22;12.88;;;9.35;;
23517;SDS011;11935;50.878;4.392;2023-03-01T08:01:54;15.10;;;10.63;;
23517;SDS011;11935;50.878;4.392;2023-03-01T08:04:20;17.05;;;9.90;;
23517;SDS011;11935;50.878;4.392;2023-03-01T08:06:46;13.70;;;10.13;;
23517;SDS011;11935;50.878;4.392;2023-03-01T08:09:12;17.65;;;11.00;;
23517;SDS011;11935;50.878;4.392;2023-03-01T08:11:38;14.85;;;8.80;;
23517;SDS011;11935;50.878;4.392;2023-03-01T08:14:05;13.32;;;9.20;;
23517;SDS011;11935;50.878;4.392;2023-03-01T08:16:31;16.02;;;9.60;;
23517;SDS011;11935;50.878;4.392;2023-03-01T08:21:26;14.38;;;9.65;;
23517;SDS011;11935;50.878;4.392;2023-03-01T08:23:52;14.88;;;9.05;;
23517;SDS011;11935;50.878;4.392;2023-03-01T08:26:19;13.77;;;9.00;;
23517;SDS011;11935;50.878;4.392;2023-03-01T08:28:46;13.25;;;9.00;;
23517;SDS011;11935;50.878;4.392;2023-03-01T08:31:14;15.77;;;8.30;;
23517;SDS011;11935;50.878;4.392;2023-03-01T08:33:40;11.68;;;9.23;;
23517;SDS011;11935;50.878;4.392;2023-03-01T08:36:07;12.77;;;9.70;;
23517;SDS011;11935;50.878;4.392;2023-03-01T08:38:33;12.30;;;9.15;;
23517;SDS011;11935;50.878;4.392;2023-03-01T08:41:00;15.98;;;9.60;;
23517;SDS011;11935;50.878;4.392;2023-03-01T08:43:27;13.13;;;8.70;;
23517;SDS011;11935;50.878;4.392;2023-03-01T08:45:53;15.65;;;9.65;;
23517;SDS011;11935;50.878;4.392;2023-03-01T08:48:19;16.38;;;9.13;;
23517;SDS011;11935;50.878;4.392;2023-03-01T08:50:45;13.60;;;9.02;;
23517;SDS011;11935;50.878;4.392;2023-03-01T08:53:11;14.93;;;9.10;;
23517;SDS011;11935;50.878;4.392;2023-03-01T08:55:37;14.85;;;9.50;;
23517;SDS011;11935;50.878;4.392;2023-03-01T08:58:03;11.80;;;8.32;;
23517;SDS011;11935;50.878;4.392;2023-03-01T09:00:29;15.82;;;8.55;;
23517;SDS011;11935;50.878;4.392;2023-03-01T09:02:55;10.70;;;7.80;;
23517;SDS011;11935;50.878;4.392;2023-03-01T09:05:21;9.55;;;6.75;;
23517;SDS011;11935;50.878;4.392;2023-03-01T09:07:47;10.88;;;7.90;;
23517;SDS011;11935;50.878;4.392;2023-03-01T09:10:13;13.20;;;8.15;;
23517;SDS011;11935;50.878;4.392;2023-03-01T09:12:39;12.95;;;7.72;;
23517;SDS011;11935;50.878;4.392;2023-03-01T09:15:06;12.48;;;7.88;;
23517;SDS011;11935;50.878;4.392;2023-03-01T09:17:32;12.00;;;8.40;;
23517;SDS011;11935;50.878;4.392;2023-03-01T09:19:58;11.57;;;7.85;;
23517;SDS011;11935;50.878;4.392;2023-03-01T09:22:24;11.43;;;7.68;;
23517;SDS011;11935;50.878;4.392;2023-03-01T09:24:50;13.70;;;8.52;;
23517;SDS011;11935;50.878;4.392;2023-03-01T09:27:16;11.80;;;7.38;;
23517;SDS011;11935;50.878;4.392;2023-03-01T09:29:44;11.38;;;6.35;;
23517;SDS011;11935;50.878;4.392;2023-03-01T09:32:10;13.82;;;8.00;;
23517;SDS011;11935;50.878;4.392;2023-03-01T09:34:36;10.20;;;8.13;;
23517;SDS011;11935;50.878;4.392;2023-03-01T09:37:22;12.75;;;8.80;;
23517;SDS011;11935;50.878;4.392;2023-03-01T09:39:48;12.85;;;7.97;;
23517;SDS011;11935;50.878;4.392;2023-03-01T09:42:14;14.85;;;8.27;;
23517;SDS011;11935;50.878;4.392;2023-03-01T09:47:30;12.98;;;8.82;;
23517;SDS011;11935;50.878;4.392;2023-03-01T09:54:55;12.77;;;8.18;;
23517;SDS011;11935;50.878;4.392;2023-03-01T09:57:26;9.80;;;5.85;;
23517;SDS011;11935;50.878;4.392;2023-03-01T10:04:57;12.57;;;8.35;;
23517;SDS011;11935;50.878;4.392;2023-03-01T10:09:51;12.88;;;9.10;;
23517;SDS011;11935;50.878;4.392;2023-03-01T10:12:27;12.02;;;8.77;;
23517;SDS011;11935;50.878;4.392;2023-03-01T10:15:06;12.52;;;8.45;;
23517;SDS011;11935;50.878;4.392;2023-03-01T10:20:24;15.82;;;8.73;;
23517;SDS011;11935;50.878;4.392;2023-03-01T10:22:50;10.90;;;9.00;;
23517;SDS011;11935;50.878;4.392;2023-03-01T10:28:29;16.63;;;8.82;;
23517;SDS011;11935;50.878;4.392;2023-03-01T10:30:57;12.10;;;8.45;;
23517;SDS011;11935;50.878;4.392;2023-03-01T10:33:29;10.88;;;7.85;;
23517;SDS011;11935;50.878;4.392;2023-03-01T10:35:57;11.52;;;8.30;;
23517;SDS011;11935;50.878;4.392;2023-03-01T10:38:23;12.18;;;8.48;;
23517;SDS011;11935;50.878;4.392;2023-03-01T10:40:56;10.70;;;6.85;;
23517;SDS011;11935;50.878;4.392;2023-03-01T10:43:32;9.80;;;4.63;;
23517;SDS011;11935;50.878;4.392;2023-03-01T10:51:44;10.02;;;8.35;;
23517;SDS011;11935;50.878;4.392;2023-03-01T10:54:18;11.97;;;7.40;;
23517;SDS011;11935;50.878;4.392;2023-03-01T10:56:49;13.70;;;8.20;;
23517;SDS011;11935;50.878;4.392;2023-03-01T10:59:27;10.77;;;7.75;;
23517;SDS011;11935;50.878;4.392;2023-03-01T11:02:15;10.20;;;7.75;;
23517;SDS011;11935;50.878;4.392;2023-03-01T11:04:39;10.38;;;7.78;;
23517;SDS011;11935;50.878;4.392;2023-03-01T11:07:07;10.82;;;8.80;;
23517;SDS011;11935;50.878;4.392;2023-03-01T11:09:33;7.40;;;4.95;;
23517;SDS011;11935;50.878;4.392;2023-03-01T11:12:03;10.52;;;7.43;;
23517;SDS011;11935;50.878;4.392;2023-03-01T11:14:33;10.18;;;7.30;;
23517;SDS011;11935;50.878;4.392;2023-03-01T11:17:02;10.45;;;7.55;;
23517;SDS011;11935;50.878;4.392;2023-03-01T11:19:29;12.38;;;7.78;;
23517;SDS011;11935;50.878;4.392;2023-03-01T11:21:57;8.20;;;7.38;;
23517;SDS011;11935;50.878;4.392;2023-03-01T11:24:46;10.93;;;7.13;;
23517;SDS011;11935;50.878;4.392;2023-03-01T11:27:18;10.27;;;7.63;;
23517;SDS011;11935;50.878;4.392;2023-03-01T11:29:47;8.15;;;7.00;;
23517;SDS011;11935;50.878;4.392;2023-03-01T11:32:16;10.07;;;6.10;;
23517;SDS011;11935;50.878;4.392;2023-03-01T11:34:45;12.57;;;7.47;;
23517;SDS011;11935;50.878;4.392;2023-03-01T11:37:16;12.65;;;8.88;;
23517;SDS011;11935;50.878;4.392;2023-03-01T11:45:06;10.38;;;8.02;;
23517;SDS011;11935;50.878;4.392;2023-03-01T12:17:06;8.05;;;6.38;;
23517;SDS011;11935;50.878;4.392;2023-03-01T12:24:38;17.05;;;7.70;;
23517;SDS011;11935;50.878;4.392;2023-03-01T12:27:14;10.40;;;7.03;;
23517;SDS011;11935;50.878;4.392;2023-03-01T12:32:20;9.50;;;7.00;;
23517;SDS011;11935;50.878;4.392;2023-03-01T12:35:13;9.10;;;7.20;;
23517;SDS011;11935;50.878;4.392;2023-03-01T12:43:36;9.27;;;7.00;;
23517;SDS011;11935;50.878;4.392;2023-03-01T12:51:01;7.50;;;6.70;;
23517;SDS011;11935;50.878;4.392;2023-03-01T12:53:34;10.60;;;7.80;;
23517;SDS011;11935;50.878;4.392;2023-03-01T12:56:05;9.02;;;6.97;;
23517;SDS011;11935;50.878;4.392;2023-03-01T12:58:37;9.40;;;7.25;;
23517;SDS011;11935;50.878;4.392;2023-03-01T13:01:10;10.73;;;7.57;;
23517;SDS011;11935;50.878;4.392;2023-03-01T13:11:43;10.65;;;6.38;;
23517;SDS011;11935;50.878;4.392;2023-03-01T13:19:21;8.65;;;6.35;;
23517;SDS011;11935;50.878;4.392;2023-03-01T13:21:48;9.73;;;7.13;;
23517;SDS011;11935;50.878;4.392;2023-03-01T13:29:51;8.95;;;7.10;;
23517;SDS011;11935;50.878;4.392;2023-03-01T13:32:26;8.13;;;6.78;;
23517;SDS011;11935;50.878;4.392;2023-03-01T13:34:59;10.15;;;7.10;;
23517;SDS011;11935;50.878;4.392;2023-03-01T13:37:29;10.00;;;7.60;;
23517;SDS011;11935;50.878;4.392;2023-03-01T13:39:57;9.20;;;7.13;;
23517;SDS011;11935;50.878;4.392;2023-03-01T13:42:43;7.55;;;6.75;;
23517;SDS011;11935;50.878;4.392;2023-03-01T13:47:42;8.77;;;6.25;;
23517;SDS011;11935;50.878;4.392;2023-03-01T13:50:16;9.55;;;6.85;;
23517;SDS011;11935;50.878;4.392;2023-03-01T13:52:44;8.52;;;7.53;;
23517;SDS011;11935;50.878;4.392;2023-03-01T13:57:40;10.55;;;7.45;;
23517;SDS011;11935;50.878;4.392;2023-03-01T14:00:24;9.70;;;7.38;;
23517;SDS011;11935;50.878;4.392;2023-03-01T14:03:01;9.77;;;6.93;;
23517;SDS011;11935;50.878;4.392;2023-03-01T14:05:29;8.07;;;6.00;;
23517;SDS011;11935;50.878;4.392;2023-03-01T14:07:55;8.43;;;6.68;;
23517;SDS011;11935;50.878;4.392;2023-03-01T14:10:21;9.02;;;6.78;;
23517;SDS011;11935;50.878;4.392;2023-03-01T14:15:32;8.35;;;7.10;;
23517;SDS011;11935;50.878;4.392;2023-03-01T14:20:42;8.15;;;6.88;;
23517;SDS011;11935;50.878;4.392;2023-03-01T14:23:14;8.32;;;6.72;;
23517;SDS011;11935;50.878;4.392;2023-03-01T14:25:48;7.85;;;6.15;;
23517;SDS011;11935;50.878;4.392;2023-03-01T14:30:54;9.15;;;7.75;;
23517;SDS011;11935;50.878;4.392;2023-03-01T14:35:54;8.98;;;6.22;;
23517;SDS011;11935;50.878;4.392;2023-03-01T14:38:21;10.35;;;7.30;;
23517;SDS011;11935;50.878;4.392;2023-03-01T14:40:48;11.03;;;8.30;;
23517;SDS011;11935;50.878;4.392;2023-03-01T14:43:17;9.60;;;8.45;;
23517;SDS011;11935;50.878;4.392;2023-03-01T14:45:48;7.03;;;5.53;;
23517;SDS011;11935;50.878;4.392;2023-03-01T14:48:15;8.73;;;7.83;;
23517;SDS011;11935;50.878;4.392;2023-03-01T14:50:41;11.65;;;7.70;;
23517;SDS011;11935;50.878;4.392;2023-03-01T14:53:12;9.70;;;7.97;;
23517;SDS011;11935;50.878;4.392;2023-03-01T14:55:46;9.15;;;7.80;;
23517;SDS011;11935;50.878;4.392;2023-03-01T14:58:14;10.43;;;7.18;;
23517;SDS011;11935;50.878;4.392;2023-03-01T15:00:45;14.15;;;7.30;;
23517;SDS011;11935;50.878;4.392;2023-03-01T15:03:19;9.63;;;7.25;;
23517;SDS011;11935;50.878;4.392;2023-03-01T15:05:47;8.80;;;7.30;;
23517;SDS011;11935;50.878;4.392;2023-03-01T15:08:18;9.15;;;7.72;;
23517;SDS011;11935;50.878;4.392;2023-03-01T15:10:56;8.60;;;7.32;;
23517;SDS011;11935;50.878;4.392;2023-03-01T15:13:23;10.18;;;7.50;;
23517;SDS011;11935;50.878;4.392;2023-03-01T15:15:50;8.15;;;7.35;;
23517;SDS011;11935;50.878;4.392;2023-03-01T15:18:18;8.90;;;7.38;;
23517;SDS011;11935;50.878;4.392;2023-03-01T15:20:45;9.88;;;8.52;;
23517;SDS011;11935;50.878;4.392;2023-03-01T15:23:28;10.23;;;6.57;;
23517;SDS011;11935;50.878;4.392;2023-03-01T15:25:56;10.10;;;7.53;;
23517;SDS011;11935;50.878;4.392;2023-03-01T15:28:24;11.63;;;8.00;;
23517;SDS011;11935;50.878;4.392;2023-03-01T15:30:54;10.95;;;7.65;;
23517;SDS011;11935;50.878;4.392;2023-03-01T15:35:54;11.68;;;7.25;;
23517;SDS011;11935;50.878;4.392;2023-03-01T15:41:32;10.75;;;8.18;;
23517;SDS011;11935;50.878;4.392;2023-03-01T15:46:48;9.40;;;6.00;;
23517;SDS011;11935;50.878;4.392;2023-03-01T15:51:46;13.10;;;7.90;;
23517;SDS011;11935;50.878;4.392;2023-03-01T15:54:17;10.52;;;6.93;;
23517;SDS011;11935;50.878;4.392;2023-03-01T15:56:45;11.68;;;7.85;;
23517;SDS011;11935;50.878;4.392;2023-03-01T15:59:11;9.85;;;5.88;;
23517;SDS011;11935;50.878;4.392;2023-03-01T16:01:39;10.55;;;7.28;;
23517;SDS011;11935;50.878;4.392;2023-03-01T16:04:05;9.90;;;7.93;;
23517;SDS011;11935;50.878;4.392;2023-03-01T16:06:31;11.05;;;7.22;;
23517;SDS011;11935;50.878;4.392;2023-03-01T16:08:58;9.55;;;5.22;;
23517;SDS011;11935;50.878;4.392;2023-03-01T16:11:24;17.40;;;7.35;;
23517;SDS011;11935;50.878;4.392;2023-03-01T16:13:50;11.27;;;7.20;;
23517;SDS011;11935;50.878;4.392;2023-03-01T16:16:16;11.98;;;7.78;;
23517;SDS011;11935;50.878;4.392;2023-03-01T16:18:43;15.88;;;8.07;;
23517;SDS011;11935;50.878;4.392;2023-03-01T16:21:18;14.43;;;8.35;;
23517;SDS011;11935;50.878;4.392;2023-03-01T16:23:45;12.57;;;7.18;;
23517;SDS011;11935;50.878;4.392;2023-03-01T16:26:11;9.45;;;6.53;;
23517;SDS011;11935;50.878;4.392;2023-03-01T16:28:38;9.63;;;6.25;;
23517;SDS011;11935;50.878;4.392;2023-03-01T16:31:04;11.23;;;6.20;;
23517;SDS011;11935;50.878;4.392;2023-03-01T16:33:31;9.57;;;7.38;;
23517;SDS011;11935;50.878;4.392;2023-03-01T16:35:58;12.35;;;7.78;;
23517;SDS011;11935;50.878;4.392;2023-03-01T16:38:25;12.32;;;7.07;;
23517;SDS011;11935;50.878;4.392;2023-03-01T16:40:51;16.50;;;8.00;;
23517;SDS011;11935;50.878;4.392;2023-03-01T16:43:18;15.07;;;8.15;;
23517;SDS011;11935;50.878;4.392;2023-03-01T16:45:44;14.57;;;7.13;;
23517;SDS011;11935;50.878;4.392;2023-03-01T16:48:11;11.02;;;7.25;;
23517;SDS011;11935;50.878;4.392;2023-03-01T16:50:37;9.15;;;6.78;;
23517;SDS011;11935;50.878;4.392;2023-03-01T16:53:03;12.20;;;6.70;;
23517;SDS011;11935;50.878;4.392;2023-03-01T16:55:30;8.18;;;6.57;;
23517;SDS011;11935;50.878;4.392;2023-03-01T16:57:56;10.65;;;6.75;;
23517;SDS011;11935;50.878;4.392;2023-03-01T17:00:22;9.93;;;7.28;;